Wetterdaten: Woche 20.03.23 - 26.03.23 (KW12)
Datum Zeit Temp. Aussen Temp. o. S. Temp +5cm Feuchte Auss Luftdruck Regen Sonnenschein Regendauer Solar Windben Empfang
20.03.2023 00:00 8,3 C 7,8 C 4,2 C 91 % 1019,9 hPa 0,0 l/m 0,00 h 0,00 h 0 W/m 8,9 km/h (2 Bft) 98,80 %
20.03.2023 01:00 8,2 C 7,6 C 4,4 C 91 % 1020,4 hPa 0,0 l/m 0,00 h 0,00 h 0 W/m 5,3 km/h (1 Bft) 95,90 %
20.03.2023 02:00 8,0 C 7,0 C 4,2 C 91 % 1020,1 hPa 0,0 l/m 0,00 h 0,00 h 0 W/m 2,9 km/h (1 Bft) 97,32 %
20.03.2023 03:00 7,4 C 6,4 C 3,5 C 93 % 1020,1 hPa 0,0 l/m 0,00 h 0,00 h 0 W/m 2,3 km/h (1 Bft) 97,16 %
20.03.2023 04:00 7,1 C 6,3 C 3,5 C 93 % 1020,0 hPa 0,0 l/m 0,00 h 0,00 h 0 W/m 2,7 km/h (1 Bft) 97,33 %
20.03.2023 05:00 6,8 C 6,1 C 3,3 C 93 % 1019,9 hPa 0,0 l/m 0,00 h 0,00 h 0 W/m 6,8 km/h (2 Bft) 97,35 %
20.03.2023 06:00 6,5 C 5,7 C 2,8 C 92 % 1019,8 hPa 0,0 l/m 0,00 h 0,00 h 6 W/m 9,0 km/h (2 Bft) 96,74 %
20.03.2023 07:00 6,6 C 6,2 C 3,2 C 93 % 1020,0 hPa 0,0 l/m 0,00 h 0,00 h 26 W/m 10,2 km/h (2 Bft) 97,91 %
20.03.2023 08:00 7,2 C 7,3 C 4,1 C 91 % 1020,5 hPa 0,0 l/m 0,00 h 0,00 h 95 W/m 11,8 km/h (2 Bft) 91,46 %
20.03.2023 09:00 8,3 C 9,0 C 5,4 C 85 % 1020,8 hPa 0,0 l/m 0,30 h 0,00 h 186 W/m 14,7 km/h (3 Bft) 98,15 %
20.03.2023 10:00 8,8 C 9,1 C 5,6 C 78 % 1020,8 hPa 0,0 l/m 0,00 h 0,00 h 198 W/m 16,8 km/h (3 Bft) 97,44 %
20.03.2023 11:00 9,0 C 9,1 C 5,5 C 76 % 1020,8 hPa 0,0 l/m 0,00 h 0,00 h 172 W/m 19,6 km/h (3 Bft) 96,94 %
20.03.2023 12:00 8,8 C 8,9 C 5,2 C 77 % 1020,6 hPa 0,0 l/m 0,00 h 0,20 h 226 W/m 21,7 km/h (4 Bft) 95,77 %
20.03.2023 13:00 8,7 C 9,0 C 4,9 C 83 % 1020,2 hPa 0,0 l/m 0,00 h 0,30 h 219 W/m 17,9 km/h (3 Bft) 97,93 %
20.03.2023 14:00 9,6 C 10,1 C 6,3 C 78 % 1019,7 hPa 0,0 l/m 0,20 h 0,00 h 230 W/m 18,1 km/h (3 Bft) 96,94 %
20.03.2023 15:00 10,0 C 10,0 C 6,2 C 78 % 1019,3 hPa 0,0 l/m 0,00 h 0,10 h 133 W/m 18,2 km/h (3 Bft) 98,14 %
20.03.2023 16:00 10,0 C 9,5 C 5,7 C 79 % 1018,9 hPa 0,0 l/m 0,00 h 0,40 h 85 W/m 20,5 km/h (4 Bft) 96,10 %
20.03.2023 17:00 9,7 C 9,2 C 5,2 C 81 % 1018,6 hPa 0,2 l/m 0,00 h 0,10 h 39 W/m 17,6 km/h (3 Bft) 98,07 %
20.03.2023 18:00 9,9 C 9,4 C 5,6 C 79 % 1018,6 hPa 0,0 l/m 0,00 h 0,00 h 10 W/m 14,6 km/h (3 Bft) 95,02 %
20.03.2023 19:00 9,9 C 9,2 C 5,6 C 79 % 1018,7 hPa 0,0 l/m 0,00 h 0,00 h 0 W/m 12,7 km/h (3 Bft) 97,51 %
20.03.2023 20:00 9,8 C 8,9 C 5,6 C 82 % 1018,6 hPa 0,0 l/m 0,00 h 0,00 h 0 W/m 9,5 km/h (2 Bft) 96,43 %
20.03.2023 21:00 9,8 C 8,9 C 5,6 C 83 % 1018,4 hPa 0,0 l/m 0,00 h 0,00 h 0 W/m 7,7 km/h (2 Bft) 98,36 %
20.03.2023 22:00 9,8 C 8,9 C 5,6 C 83 % 1018,3 hPa 0,0 l/m 0,00 h 0,00 h 0 W/m 5,1 km/h (1 Bft) 97,21 %
20.03.2023 23:00 10,1 C 9,4 C 5,8 C 83 % 1018,4 hPa 0,0 l/m 0,00 h 0,00 h 0 W/m 10,5 km/h (2 Bft) 95,86 %
21.03.2023 00:00 10,2 C 9,4 C 5,6 C 82 % 1018,0 hPa 0,0 l/m 0,00 h 0,00 h 0 W/m 5,6 km/h (1 Bft) 98,29 %
21.03.2023 01:00 9,9 C 8,9 C 5,6 C 83 % 1017,6 hPa 0,0 l/m 0,00 h 0,00 h 0 W/m 4,4 km/h (1 Bft) 96,80 %
21.03.2023 02:00 9,9 C 9,0 C 5,6 C 85 % 1017,1 hPa 0,0 l/m 0,00 h 0,00 h 0 W/m 8,6 km/h (2 Bft) 98,43 %
21.03.2023 03:00 9,8 C 8,9 C 5,5 C 86 % 1016,5 hPa 0,0 l/m 0,00 h 0,00 h 0 W/m 3,9 km/h (1 Bft) 97,70 %
21.03.2023 04:00 9,4 C 8,3 C 5,0 C 87 % 1016,1 hPa 0,0 l/m 0,00 h 0,00 h 0 W/m 5,0 km/h (1 Bft) 96,26 %
21.03.2023 05:00 9,3 C 8,3 C 4,8 C 89 % 1015,8 hPa 0,0 l/m 0,00 h 0,30 h 0 W/m 4,6 km/h (1 Bft) 98,24 %
21.03.2023 06:00 9,0 C 8,0 C 4,2 C 91 % 1015,5 hPa 0,2 l/m 0,00 h 0,23 h 4 W/m 7,4 km/h (2 Bft) 97,72 %
21.03.2023 07:00 8,9 C 8,5 C 4,6 C 93 % 1015,5 hPa 0,0 l/m 0,00 h 0,00 h 20 W/m 9,3 km/h (2 Bft) 96,15 %
21.03.2023 08:00 9,6 C 9,4 C 5,6 C 92 % 1015,5 hPa 0,2 l/m 0,00 h 0,37 h 62 W/m 11,6 km/h (2 Bft) 98,72 %
21.03.2023 09:00 9,9 C 9,4 C 5,0 C 92 % 1015,6 hPa 0,4 l/m 0,00 h 0,90 h 84 W/m 12,2 km/h (3 Bft) 96,16 %
21.03.2023 10:00 10,2 C 10,2 C 5,8 C 94 % 1015,5 hPa 0,0 l/m 0,00 h 0,13 h 125 W/m 12,4 km/h (3 Bft) 97,09 %
21.03.2023 11:00 10,4 C 10,4 C 5,9 C 95 % 1014,9 hPa 0,6 l/m 0,00 h 0,37 h 163 W/m 15,5 km/h (3 Bft) 95,37 %
21.03.2023 12:00 11,2 C 11,5 C 6,3 C 92 % 1014,2 hPa 0,0 l/m 0,00 h 0,03 h 210 W/m 21,7 km/h (4 Bft) 98,41 %
21.03.2023 13:00 11,5 C 11,7 C 6,8 C 91 % 1013,9 hPa 0,0 l/m 0,13 h 0,17 h 228 W/m 17,6 km/h (3 Bft) 92,02 %
21.03.2023 14:00 12,5 C 13,3 C 8,7 C 88 % 1013,1 hPa 0,0 l/m 0,97 h 0,00 h 324 W/m 19,9 km/h (4 Bft) 97,87 %
21.03.2023 15:00 13,3 C 14,1 C 9,5 C 84 % 1012,6 hPa 0,0 l/m 0,77 h 0,00 h 279 W/m 16,2 km/h (3 Bft) 96,73 %
21.03.2023 16:00 13,9 C 13,8 C 9,6 C 79 % 1012,2 hPa 0,0 l/m 0,20 h 0,00 h 138 W/m 16,2 km/h (3 Bft) 97,17 %
21.03.2023 17:00 14,2 C 13,6 C 9,6 C 70 % 1012,0 hPa 0,0 l/m 0,00 h 0,00 h 39 W/m 17,9 km/h (3 Bft) 96,55 %
21.03.2023 18:00 13,7 C 12,6 C 8,5 C 76 % 1012,3 hPa 0,0 l/m 0,00 h 0,23 h 15 W/m 9,4 km/h (2 Bft) 96,99 %
21.03.2023 19:00 12,9 C 12,1 C 8,2 C 81 % 1012,4 hPa 0,0 l/m 0,00 h 0,03 h 0 W/m 7,6 km/h (2 Bft) 98,09 %
21.03.2023 20:00 12,7 C 11,7 C 7,8 C 82 % 1012,2 hPa 0,0 l/m 0,00 h 0,00 h 0 W/m 3,5 km/h (1 Bft) 97,69 %
21.03.2023 21:00 12,0 C 10,7 C 7,0 C 83 % 1012,0 hPa 0,0 l/m 0,00 h 0,00 h 0 W/m 3,7 km/h (1 Bft) 96,49 %
21.03.2023 22:00 11,6 C 10,8 C 7,1 C 86 % 1011,9 hPa 0,0 l/m 0,00 h 0,00 h 0 W/m 8,8 km/h (2 Bft) 97,98 %
21.03.2023 23:00 11,6 C 10,7 C 7,0 C 84 % 1011,8 hPa 0,0 l/m 0,00 h 0,00 h 0 W/m 10,0 km/h (2 Bft) 95,67 %
22.03.2023 00:00 11,1 C 10,5 C 6,7 C 86 % 1011,5 hPa 0,0 l/m 0,00 h 0,00 h 0 W/m 6,9 km/h (2 Bft) 97,01 %
22.03.2023 01:00 11,1 C 10,1 C 6,6 C 86 % 1011,1 hPa 0,0 l/m 0,00 h 0,00 h 0 W/m 7,4 km/h (2 Bft) 96,24 %
22.03.2023 02:00 10,4 C 9,1 C 5,8 C 88 % 1010,5 hPa 0,0 l/m 0,00 h 0,00 h 0 W/m 5,0 km/h (1 Bft) 98,65 %
22.03.2023 03:00 9,7 C 8,6 C 5,6 C 89 % 1009,6 hPa 0,0 l/m 0,00 h 0,00 h 0 W/m 7,2 km/h (2 Bft) 95,97 %
22.03.2023 04:00 9,5 C 8,7 C 5,5 C 91 % 1009,2 hPa 0,0 l/m 0,00 h 0,00 h 0 W/m 11,2 km/h (2 Bft) 95,38 %
22.03.2023 05:00 9,6 C 8,7 C 5,4 C 90 % 1009,1 hPa 0,0 l/m 0,00 h 0,00 h 0 W/m 11,0 km/h (2 Bft) 99,22 %
22.03.2023 06:00 9,7 C 9,1 C 5,7 C 90 % 1009,0 hPa 0,0 l/m 0,00 h 0,00 h 10 W/m 11,0 km/h (2 Bft) 92,87 %
22.03.2023 07:00 10,3 C 9,9 C 6,4 C 88 % 1008,9 hPa 0,0 l/m 0,00 h 0,00 h 47 W/m 15,6 km/h (3 Bft) 99,43 %
22.03.2023 08:00 11,3 C 11,0 C 7,1 C 84 % 1008,8 hPa 0,0 l/m 0,00 h 0,00 h 78 W/m 29,4 km/h (5 Bft) 94,98 %
22.03.2023 09:00 11,6 C 11,5 C 7,6 C 81 % 1008,9 hPa 0,0 l/m 0,07 h 0,00 h 142 W/m 29,9 km/h (5 Bft) 96,53 %
22.03.2023 10:00 12,2 C 12,1 C 8,1 C 78 % 1008,8 hPa 0,0 l/m 0,07 h 0,00 h 181 W/m 29,8 km/h (5 Bft) 97,79 %
22.03.2023 11:00 12,7 C 12,7 C 8,9 C 74 % 1008,6 hPa 0,0 l/m 0,20 h 0,00 h 215 W/m 33,0 km/h (5 Bft) 97,57 %
22.03.2023 12:00 12,7 C 12,6 C 8,7 C 73 % 1008,5 hPa 0,0 l/m 0,00 h 0,00 h 167 W/m 31,9 km/h (5 Bft) 95,70 %
22.03.2023 13:00 12,9 C 12,5 C 8,7 C 73 % 1008,3 hPa 0,0 l/m 0,00 h 0,07 h 119 W/m 26,4 km/h (4 Bft) 99,50 %
22.03.2023 14:00 13,2 C 12,8 C 8,9 C 73 % 1008,0 hPa 0,0 l/m 0,00 h 0,00 h 117 W/m 27,1 km/h (4 Bft) 95,68 %
22.03.2023 15:00 13,7 C 13,2 C 9,4 C 73 % 1007,5 hPa 0,0 l/m 0,00 h 0,00 h 93 W/m 28,3 km/h (4 Bft) 97,74 %
22.03.2023 16:00 13,5 C 12,9 C 8,9 C 75 % 1007,3 hPa 0,0 l/m 0,00 h 0,00 h 70 W/m 25,2 km/h (4 Bft) 97,87 %
22.03.2023 17:00 13,7 C 13,2 C 9,2 C 75 % 1007,1 hPa 0,0 l/m 0,00 h 0,00 h 55 W/m 23,6 km/h (4 Bft) 94,67 %
22.03.2023 18:00 13,5 C 12,8 C 8,9 C 76 % 1007,0 hPa 0,0 l/m 0,00 h 0,00 h 12 W/m 26,2 km/h (4 Bft) 96,26 %
22.03.2023 19:00 13,4 C 12,8 C 8,9 C 78 % 1006,9 hPa 0,0 l/m 0,00 h 0,00 h 0 W/m 28,9 km/h (5 Bft) 98,78 %
22.03.2023 20:00 13,2 C 12,3 C 8,3 C 81 % 1006,6 hPa 0,0 l/m 0,00 h 0,23 h 0 W/m 24,1 km/h (4 Bft) 94,34 %
22.03.2023 21:00 12,9 C 11,9 C 8,0 C 83 % 1006,1 hPa 0,0 l/m 0,00 h 0,33 h 0 W/m 27,3 km/h (4 Bft) 98,46 %
22.03.2023 22:00 12,8 C 12,0 C 7,8 C 84 % 1005,7 hPa 0,0 l/m 0,00 h 0,50 h 0 W/m 30,9 km/h (5 Bft) 95,99 %
22.03.2023 23:00 12,6 C 11,8 C 7,4 C 85 % 1005,5 hPa 0,2 l/m 0,00 h 0,67 h 0 W/m 27,0 km/h (4 Bft) 96,43 %
23.03.2023 00:00 12,7 C 12,0 C 7,9 C 84 % 1005,0 hPa 0,0 l/m 0,00 h 0,05 h 0 W/m 27,5 km/h (4 Bft) 98,54 %
23.03.2023 01:00 12,7 C 11,9 C 8,0 C 85 % 1004,5 hPa 0,0 l/m 0,00 h 0,00 h 0 W/m 20,8 km/h (4 Bft) 98,66 %
23.03.2023 02:00 12,5 C 11,7 C 7,8 C 86 % 1004,1 hPa 0,0 l/m 0,00 h 0,00 h 0 W/m 18,8 km/h (3 Bft) 95,78 %
23.03.2023 03:00 12,1 C 11,2 C 7,5 C 88 % 1003,7 hPa 0,0 l/m 0,00 h 0,00 h 0 W/m 15,9 km/h (3 Bft) 99,36 %
23.03.2023 04:00 11,9 C 11,3 C 7,6 C 88 % 1003,4 hPa 0,0 l/m 0,00 h 0,00 h 0 W/m 20,0 km/h (4 Bft) 96,91 %
23.03.2023 05:00 12,4 C 11,7 C 7,8 C 86 % 1003,5 hPa 0,0 l/m 0,00 h 0,00 h 0 W/m 25,5 km/h (4 Bft) 95,52 %
23.03.2023 06:00 12,4 C 11,7 C 7,8 C 85 % 1003,8 hPa 0,0 l/m 0,00 h 0,00 h 7 W/m 24,4 km/h (4 Bft) 98,30 %
23.03.2023 07:00 12,3 C 11,8 C 7,9 C 85 % 1004,1 hPa 0,0 l/m 0,00 h 0,00 h 44 W/m 23,1 km/h (4 Bft) 96,80 %
23.03.2023 08:00 12,6 C 12,2 C 8,3 C 83 % 1004,4 hPa 0,0 l/m 0,00 h 0,00 h 83 W/m 26,3 km/h (4 Bft) 96,17 %
23.03.2023 09:00 13,2 C 13,0 C 9,1 C 80 % 1004,6 hPa 0,0 l/m 0,00 h 0,00 h 140 W/m 31,8 km/h (5 Bft) 98,53 %
23.03.2023 10:00 12,3 C 11,4 C 7,5 C 82 % 1005,3 hPa 1,2 l/m 0,00 h 0,20 h 71 W/m 24,6 km/h (4 Bft) 95,30 %
23.03.2023 11:00 9,8 C 9,1 C 5,1 C 94 % 1006,0 hPa 0,8 l/m 0,00 h 0,80 h 62 W/m 12,0 km/h (2 Bft) 98,15 %
23.03.2023 12:00 10,4 C 10,7 C 6,4 C 96 % 1006,0 hPa 0,4 l/m 0,03 h 0,47 h 190 W/m 12,3 km/h (3 Bft) 98,20 %
23.03.2023 13:00 11,0 C 10,8 C 6,8 C 96 % 1006,0 hPa 1,0 l/m 0,00 h 0,53 h 136 W/m 16,2 km/h (3 Bft) 94,79 %
23.03.2023 14:00 12,1 C 12,6 C 7,7 C 95 % 1005,7 hPa 0,0 l/m 0,10 h 0,03 h 181 W/m 15,6 km/h (3 Bft) 98,57 %
23.03.2023 15:00 13,5 C 14,5 C 8,1 C 90 % 1005,6 hPa 0,0 l/m 0,43 h 0,00 h 311 W/m 26,7 km/h (4 Bft) 98,44 %
23.03.2023 16:00 14,5 C 16,2 C 8,8 C 83 % 1004,8 hPa 0,0 l/m 0,97 h 0,00 h 292 W/m 28,5 km/h (4 Bft) 95,16 %
23.03.2023 17:00 14,6 C 14,4 C 10,0 C 82 % 1004,6 hPa 0,0 l/m 0,37 h 0,00 h 82 W/m 15,1 km/h (3 Bft) 98,86 %
23.03.2023 18:00 14,4 C 13,6 C 9,7 C 78 % 1004,8 hPa 0,0 l/m 0,07 h 0,00 h 14 W/m 18,6 km/h (3 Bft) 97,10 %
23.03.2023 19:00 13,6 C 12,7 C 8,9 C 79 % 1004,5 hPa 0,0 l/m 0,00 h 0,00 h 0 W/m 14,6 km/h (3 Bft) 96,87 %
23.03.2023 20:00 13,0 C 12,2 C 8,3 C 80 % 1004,0 hPa 0,0 l/m 0,00 h 0,00 h 0 W/m 13,6 km/h (3 Bft) 98,18 %
23.03.2023 21:00 13,2 C 12,6 C 8,7 C 80 % 1003,4 hPa 0,0 l/m 0,00 h 0,03 h 0 W/m 21,4 km/h (4 Bft) 97,28 %
23.03.2023 22:00 13,3 C 12,3 C 8,1 C 82 % 1003,1 hPa 0,0 l/m 0,00 h 0,43 h 0 W/m 22,5 km/h (4 Bft) 96,53 %
23.03.2023 23:00 12,6 C 11,2 C 6,8 C 87 % 1002,6 hPa 0,6 l/m 0,00 h 1,00 h 0 W/m 21,5 km/h (4 Bft) 99,14 %
24.03.2023 00:00 11,9 C 10,8 C 6,7 C 92 % 1001,7 hPa 0,6 l/m 0,00 h 0,97 h 0 W/m 21,0 km/h (4 Bft) 96,03 %
24.03.2023 01:00 12,0 C 11,1 C 7,1 C 94 % 1000,9 hPa 0,2 l/m 0,00 h 0,73 h 0 W/m 18,4 km/h (3 Bft) 97,99 %
24.03.2023 02:00 12,2 C 11,4 C 7,2 C 94 % 1000,1 hPa 0,2 l/m 0,00 h 0,57 h 0 W/m 19,1 km/h (3 Bft) 98,45 %
24.03.2023 03:00 12,6 C 12,0 C 7,6 C 94 % 999,1 hPa 0,2 l/m 0,00 h 0,13 h 0 W/m 21,1 km/h (4 Bft) 96,05 %
24.03.2023 04:00 13,6 C 12,7 C 7,8 C 88 % 998,9 hPa 0,4 l/m 0,00 h 0,13 h 0 W/m 30,8 km/h (5 Bft) 98,42 %
24.03.2023 05:00 12,5 C 11,1 C 7,5 C 93 % 999,7 hPa 1,0 l/m 0,00 h 0,37 h 0 W/m 21,2 km/h (4 Bft) 96,28 %
24.03.2023 06:00 11,1 C 10,2 C 5,9 C 90 % 1001,2 hPa 0,0 l/m 0,00 h 0,00 h 7 W/m 22,5 km/h (4 Bft) 97,32 %
24.03.2023 07:00 10,1 C 9,4 C 5,0 C 86 % 1002,2 hPa 0,0 l/m 0,00 h 0,00 h 24 W/m 19,1 km/h (3 Bft) 95,72 %
24.03.2023 08:00 10,5 C 10,6 C 6,5 C 86 % 1002,6 hPa 0,0 l/m 0,23 h 0,00 h 122 W/m 20,9 km/h (4 Bft) 96,94 %
24.03.2023 09:00 11,8 C 14,4 C 8,2 C 81 % 1003,1 hPa 0,0 l/m 0,53 h 0,00 h 233 W/m 21,4 km/h (4 Bft) 97,01 %
24.03.2023 10:00 13,1 C 15,3 C 10,0 C 77 % 1003,4 hPa 0,0 l/m 0,50 h 0,00 h 327 W/m 21,0 km/h (4 Bft) 99,15 %
24.03.2023 11:00 13,3 C 14,9 C 10,7 C 74 % 1004,0 hPa 0,0 l/m 0,20 h 0,00 h 312 W/m 20,7 km/h (4 Bft) 95,23 %
24.03.2023 12:00 14,1 C 15,3 C 10,7 C 72 % 1004,0 hPa 0,0 l/m 0,57 h 0,00 h 417 W/m 19,3 km/h (3 Bft) 96,09 %
24.03.2023 13:00 15,0 C 17,5 C 11,1 C 68 % 1003,8 hPa 0,0 l/m 0,57 h 0,03 h 391 W/m 25,6 km/h (4 Bft) 97,11 %
24.03.2023 14:00 14,7 C 15,4 C 10,5 C 67 % 1003,6 hPa 0,0 l/m 0,37 h 0,00 h 280 W/m 26,1 km/h (4 Bft) 98,73 %
24.03.2023 15:00 14,1 C 15,4 C 9,8 C 75 % 1003,6 hPa 0,0 l/m 0,57 h 0,13 h 318 W/m 15,6 km/h (3 Bft) 95,33 %
24.03.2023 16:00 12,7 C 11,7 C 7,6 C 80 % 1003,6 hPa 2,6 l/m 0,17 h 0,47 h 91 W/m 23,0 km/h (4 Bft) 94,95 %
24.03.2023 17:00 10,7 C 10,3 C 5,6 C 88 % 1003,5 hPa 0,0 l/m 0,73 h 0,10 h 132 W/m 22,6 km/h (4 Bft) 97,23 %
24.03.2023 18:00 11,2 C 10,3 C 5,1 C 84 % 1003,6 hPa 0,0 l/m 0,07 h 0,00 h 16 W/m 20,6 km/h (4 Bft) 95,17 %
24.03.2023 19:00 10,5 C 9,4 C 5,0 C 87 % 1003,8 hPa 0,0 l/m 0,00 h 0,00 h 0 W/m 13,2 km/h (3 Bft) 98,72 %
24.03.2023 20:00 10,4 C 9,5 C 5,0 C 88 % 1003,8 hPa 0,2 l/m 0,00 h 0,17 h 0 W/m 18,7 km/h (3 Bft) 97,43 %
24.03.2023 21:00 9,9 C 9,0 C 5,0 C 86 % 1003,7 hPa 0,0 l/m 0,00 h 0,00 h 0 W/m 16,6 km/h (3 Bft) 96,39 %
24.03.2023 22:00 9,7 C 8,9 C 5,6 C 88 % 1003,7 hPa 0,0 l/m 0,00 h 0,00 h 0 W/m 19,8 km/h (4 Bft) 98,61 %
24.03.2023 23:00 9,8 C 9,1 C 5,5 C 85 % 1003,8 hPa 0,0 l/m 0,00 h 0,17 h 0 W/m 25,3 km/h (4 Bft) 96,38 %
25.03.2023 00:00 9,3 C 8,4 C 5,2 C 86 % 1004,0 hPa 0,0 l/m 0,00 h 0,00 h 0 W/m 24,5 km/h (4 Bft) 97,40 %
25.03.2023 01:00 9,2 C 8,3 C 5,0 C 87 % 1004,0 hPa 0,0 l/m 0,00 h 0,00 h 0 W/m 24,0 km/h (4 Bft) 96,87 %
25.03.2023 02:00 9,4 C 8,7 C 5,3 C 84 % 1003,9 hPa 0,0 l/m 0,00 h 0,00 h 0 W/m 27,5 km/h (4 Bft) 98,01 %
25.03.2023 03:00 9,1 C 8,3 C 5,0 C 84 % 1003,8 hPa 0,0 l/m 0,00 h 0,00 h 0 W/m 25,5 km/h (4 Bft) 96,54 %
25.03.2023 04:00 8,8 C 7,9 C 4,6 C 86 % 1003,7 hPa 0,0 l/m 0,00 h 0,23 h 0 W/m 26,1 km/h (4 Bft) 96,30 %
25.03.2023 05:00 8,8 C 8,1 C 4,7 C 85 % 1003,6 hPa 0,0 l/m 0,00 h 0,23 h 0 W/m 28,2 km/h (4 Bft) 97,61 %
25.03.2023 06:00 8,7 C 7,9 C 4,3 C 85 % 1003,7 hPa 0,0 l/m 0,10 h 0,25 h 13 W/m 31,3 km/h (5 Bft) 96,06 %
25.03.2023 07:00 8,4 C 7,6 C 3,8 C 89 % 1003,9 hPa 0,2 l/m 0,00 h 0,43 h 50 W/m 26,8 km/h (4 Bft) 98,56 %
25.03.2023 08:00 8,5 C 8,3 C 4,5 C 90 % 1004,0 hPa 0,0 l/m 0,00 h 0,00 h 72 W/m 25,4 km/h (4 Bft) 97,44 %
25.03.2023 09:00 9,6 C 10,2 C 6,4 C 84 % 1004,3 hPa 0,0 l/m 0,20 h 0,00 h 172 W/m 24,2 km/h (4 Bft) 95,73 %
25.03.2023 10:00 10,3 C 10,2 C 6,7 C 80 % 1004,5 hPa 0,0 l/m 0,00 h 0,00 h 161 W/m 26,7 km/h (4 Bft) 96,45 %
25.03.2023 11:00 10,7 C 10,7 C 6,6 C 80 % 1004,7 hPa 0,2 l/m 0,00 h 0,33 h 185 W/m 25,4 km/h (4 Bft) 97,13 %
25.03.2023 12:00 9,8 C 9,8 C 4,9 C 90 % 1005,0 hPa 1,0 l/m 0,17 h 0,77 h 214 W/m 20,2 km/h (4 Bft) 95,63 %
25.03.2023 13:00 10,9 C 15,1 C 5,6 C 87 % 1005,0 hPa 0,2 l/m 0,80 h 0,17 h 560 W/m 29,6 km/h (5 Bft) 99,15 %
25.03.2023 14:00 10,1 C 11,1 C 5,0 C 89 % 1005,2 hPa 0,8 l/m 0,53 h 0,43 h 364 W/m 25,6 km/h (4 Bft) 96,80 %
25.03.2023 15:00 10,8 C 10,6 C 5,2 C 86 % 1005,2 hPa 0,2 l/m 0,13 h 0,57 h 133 W/m 26,6 km/h (4 Bft) 95,10 %
25.03.2023 16:00 9,4 C 9,1 C 4,4 C 90 % 1005,4 hPa 1,6 l/m 0,13 h 0,33 h 118 W/m 16,0 km/h (3 Bft) 97,87 %
25.03.2023 17:00 9,9 C 9,7 C 4,5 C 88 % 1005,4 hPa 0,0 l/m 0,27 h 0,17 h 76 W/m 21,9 km/h (4 Bft) 89,51 %
25.03.2023 18:00 9,7 C 9,0 C 3,9 C 84 % 1006,0 hPa 0,0 l/m 0,03 h 0,07 h 18 W/m 21,9 km/h (4 Bft) 92,53 %
25.03.2023 19:00 9,4 C 8,5 C 4,9 C 86 % 1006,8 hPa 0,0 l/m 0,00 h 0,00 h 0 W/m 18,1 km/h (3 Bft) 98,94 %
25.03.2023 20:00 9,2 C 8,3 C 5,0 C 87 % 1007,0 hPa 0,0 l/m 0,00 h 0,00 h 0 W/m 17,9 km/h (3 Bft) 96,05 %
25.03.2023 21:00 9,4 C 8,7 C 5,2 C 86 % 1007,2 hPa 0,0 l/m 0,00 h 0,00 h 0 W/m 15,9 km/h (3 Bft) 96,66 %
25.03.2023 22:00 9,4 C 8,6 C 5,2 C 87 % 1007,5 hPa 0,0 l/m 0,00 h 0,20 h 0 W/m 15,5 km/h (3 Bft) 97,16 %
25.03.2023 23:00 8,8 C 7,9 C 3,9 C 91 % 1008,0 hPa 0,6 l/m 0,00 h 0,60 h 0 W/m 13,8 km/h (3 Bft) 97,72 %
26.03.2023 00:00 8,3 C 7,7 C 3,9 C 92 % 1008,2 hPa 0,0 l/m 0,00 h 0,00 h 0 W/m 12,4 km/h (3 Bft) 96,41 %
26.03.2023 01:00 8,1 C 7,2 C 4,0 C 90 % 1008,1 hPa 0,0 l/m 0,00 h 0,00 h 0 W/m 11,9 km/h (2 Bft) 96,97 %
26.03.2023 03:00 8,1 C 7,1 C 4,0 C 90 % 1007,6 hPa 0,0 l/m 0,00 h 0,00 h 0 W/m 9,8 km/h (2 Bft) 99,15 %
26.03.2023 04:00 7,4 C 6,1 C 3,3 C 91 % 1006,8 hPa 0,0 l/m 0,00 h 0,00 h 0 W/m 4,4 km/h (1 Bft) 96,29 %
26.03.2023 05:00 7,1 C 6,4 C 3,3 C 92 % 1005,8 hPa 0,0 l/m 0,00 h 0,30 h 0 W/m 5,7 km/h (1 Bft) 98,17 %
26.03.2023 06:00 7,4 C 6,6 C 3,1 C 93 % 1005,0 hPa 0,2 l/m 0,00 h 0,47 h 0 W/m 1,9 km/h (1 Bft) 96,72 %
26.03.2023 07:00 7,3 C 6,2 C 3,1 C 93 % 1004,3 hPa 0,2 l/m 0,00 h 0,27 h 4 W/m 0,7 km/h (0 Bft) 97,87 %
26.03.2023 08:00 7,3 C 6,7 C 3,3 C 95 % 1003,4 hPa 0,4 l/m 0,00 h 0,60 h 15 W/m 2,3 km/h (1 Bft) 95,73 %
26.03.2023 09:00 7,5 C 7,0 C 3,6 C 96 % 1002,9 hPa 0,8 l/m 0,00 h 1,00 h 44 W/m 6,7 km/h (2 Bft) 97,93 %
26.03.2023 10:00 7,7 C 7,2 C 3,9 C 96 % 1002,5 hPa 1,8 l/m 0,00 h 1,00 h 53 W/m 7,4 km/h (2 Bft) 98,37 %
26.03.2023 11:00 7,7 C 7,1 C 4,0 C 97 % 1002,2 hPa 2,2 l/m 0,00 h 1,00 h 63 W/m 11,8 km/h (2 Bft) 95,44 %
26.03.2023 12:00 7,2 C 7,3 C 3,6 C 96 % 1001,8 hPa 1,2 l/m 0,00 h 1,00 h 129 W/m 8,9 km/h (2 Bft) 98,72 %
26.03.2023 13:00 7,8 C 8,7 C 4,3 C 96 % 1001,6 hPa 0,2 l/m 0,00 h 0,33 h 185 W/m 9,8 km/h (2 Bft) 96,20 %
26.03.2023 14:00 8,0 C 8,6 C 4,4 C 95 % 1001,7 hPa 0,0 l/m 0,00 h 0,33 h 196 W/m 11,2 km/h (2 Bft) 97,19 %
26.03.2023 15:00 8,7 C 9,7 C 4,7 C 94 % 1001,9 hPa 0,0 l/m 0,00 h 0,00 h 211 W/m 11,2 km/h (2 Bft) 97,55 %
26.03.2023 16:00 9,1 C 9,3 C 5,4 C 89 % 1002,2 hPa 0,0 l/m 0,00 h 0,00 h 118 W/m 11,6 km/h (2 Bft) 97,23 %
26.03.2023 17:00 8,9 C 8,6 C 5,3 C 89 % 1002,9 hPa 0,0 l/m 0,00 h 0,20 h 90 W/m 16,5 km/h (3 Bft) 94,71 %
26.03.2023 18:00 8,1 C 7,5 C 4,2 C 93 % 1004,0 hPa 0,0 l/m 0,00 h 0,20 h 51 W/m 19,3 km/h (3 Bft) 98,61 %
26.03.2023 19:00 7,7 C 7,1 C 4,2 C 92 % 1005,3 hPa 0,0 l/m 0,00 h 0,00 h 13 W/m 19,3 km/h (3 Bft) 95,15 %
26.03.2023 20:00 7,1 C 6,5 C 3,6 C 87 % 1006,8 hPa 0,0 l/m 0,00 h 0,00 h 5 W/m 20,7 km/h (4 Bft) 96,70 %
26.03.2023 21:00 6,6 C 6,0 C 3,0 C 83 % 1008,1 hPa 0,0 l/m 0,00 h 0,00 h 0 W/m 21,1 km/h (4 Bft) 94,17 %
26.03.2023 22:00 6,1 C 5,5 C 2,3 C 78 % 1009,3 hPa 0,0 l/m 0,00 h 0,00 h 0 W/m 24,7 km/h (4 Bft) 99,56 %
26.03.2023 23:00 5,5 C 4,7 C 1,5 C 76 % 1010,6 hPa 0,0 l/m 0,00 h 0,00 h 0 W/m 23,5 km/h (4 Bft) 92,73 %
Min-Datum _ 26.03.23 26.03.23 26.03.23 24.03.23 24.03.23 - - - - 20.03.23 21.03.23
_ Min-Zeit 23:54 23:34 23:40 15:04 04:06 - - - - 02:30 13:18
Minimum _ 5,1 C 4,4 C 1,1 C 63 % 998,7 hPa - - - - 0,0 km/h (0 Bft) 4,76 %
Max-Datum _ 24.03.23 24.03.23 24.03.23 26.03.23 20.03.23 24.03.23 24.03.23 21.03.23 24.03.23 22.03.23 20.03.23
_ Max-Zeit 15:06 13:00 11:20 10:34 09:50 16:34 12:12 06:12 13:00 08:40 00:08
Maximum _ 15,7 C 21,1 C 13,9 C 97 % 1020,9 hPa 2,6 l/m 0,07 h 0,07 h 891 W/m 64,4 km/h
SW (8 Bft)
100,00 %
Durchschnitt _ 10,5 C 10,1 C 6,2 C 86 % 1008,5 hPa #23,0 l/m #11:44 h #24:44 h 133 W/m 17,3 km/h (3 Bft) 96,92 %
© 2023 W. Hausmann